sensor_id;sensor_type;location;lat;lon;timestamp;pressure;altitude;pressure_sealevel;temperature;humidity
18533;BME280;9396;51.510;11.934;2023-02-16T00:00:50;101420.59;;;2.55;98.08
18533;BME280;9396;51.510;11.934;2023-02-16T00:03:18;101423.69;;;2.63;98.14
18533;BME280;9396;51.510;11.934;2023-02-16T00:05:46;101415.03;;;2.61;98.58
18533;BME280;9396;51.510;11.934;2023-02-16T00:08:13;101420.03;;;2.65;98.65
18533;BME280;9396;51.510;11.934;2023-02-16T00:10:40;101420.91;;;2.66;98.44
18533;BME280;9396;51.510;11.934;2023-02-16T00:13:28;101426.00;;;2.69;98.31
18533;BME280;9396;51.510;11.934;2023-02-16T00:16:13;101316.41;;;2.05;97.50
18533;BME280;9396;51.510;11.934;2023-02-16T00:18:40;101425.84;;;2.38;99.93
18533;BME280;9396;51.510;11.934;2023-02-16T00:21:06;101429.41;;;2.37;100.00
18533;BME280;9396;51.510;11.934;2023-02-16T00:23:33;101425.41;;;2.47;100.00
18533;BME280;9396;51.510;11.934;2023-02-16T00:25:59;101419.34;;;2.62;100.00
18533;BME280;9396;51.510;11.934;2023-02-16T00:28:26;101416.72;;;2.62;100.00
18533;BME280;9396;51.510;11.934;2023-02-16T00:30:53;101416.47;;;2.83;100.00
18533;BME280;9396;51.510;11.934;2023-02-16T00:33:21;101407.88;;;2.97;99.57
18533;BME280;9396;51.510;11.934;2023-02-16T00:35:47;101413.94;;;3.14;98.77
18533;BME280;9396;51.510;11.934;2023-02-16T00:38:14;101410.91;;;3.22;99.03
18533;BME280;9396;51.510;11.934;2023-02-16T00:40:41;101405.38;;;3.26;98.77
18533;BME280;9396;51.510;11.934;2023-02-16T00:43:12;101411.91;;;3.35;97.81
18533;BME280;9396;51.510;11.934;2023-02-16T00:45:47;101407.41;;;3.21;98.63
18533;BME280;9396;51.510;11.934;2023-02-16T00:48:13;101408.00;;;3.26;98.67
18533;BME280;9396;51.510;11.934;2023-02-16T00:50:41;101420.06;;;3.31;97.91
18533;BME280;9396;51.510;11.934;2023-02-16T00:53:08;101422.53;;;3.34;97.66
18533;BME280;9396;51.510;11.934;2023-02-16T00:55:37;101416.69;;;3.44;97.29
18533;BME280;9396;51.510;11.934;2023-02-16T00:58:06;101413.81;;;3.49;96.61
18533;BME280;9396;51.510;11.934;2023-02-16T01:00:38;101406.34;;;3.57;96.71
18533;BME280;9396;51.510;11.934;2023-02-16T01:03:08;101409.72;;;3.59;96.30
18533;BME280;9396;51.510;11.934;2023-02-16T01:05:36;101408.53;;;3.64;95.90
18533;BME280;9396;51.510;11.934;2023-02-16T01:08:09;101409.38;;;3.49;95.49
18533;BME280;9396;51.510;11.934;2023-02-16T01:10:53;101416.19;;;3.53;95.76
18533;BME280;9396;51.510;11.934;2023-02-16T01:13:40;101414.31;;;3.55;95.90
18533;BME280;9396;51.510;11.934;2023-02-16T01:16:13;101414.22;;;3.57;95.53
18533;BME280;9396;51.510;11.934;2023-02-16T01:18:40;101419.06;;;3.64;95.33
18533;BME280;9396;51.510;11.934;2023-02-16T01:21:06;101407.28;;;3.71;95.22
18533;BME280;9396;51.510;11.934;2023-02-16T01:23:35;101410.31;;;3.64;94.82
18533;BME280;9396;51.510;11.934;2023-02-16T01:26:02;101404.38;;;3.60;95.39
18533;BME280;9396;51.510;11.934;2023-02-16T01:28:29;101409.22;;;3.52;96.02
18533;BME280;9396;51.510;11.934;2023-02-16T01:30:58;101414.31;;;3.55;96.32
18533;BME280;9396;51.510;11.934;2023-02-16T01:33:25;101405.91;;;3.49;97.49
18533;BME280;9396;51.510;11.934;2023-02-16T01:35:52;101406.84;;;3.48;97.23
18533;BME280;9396;51.510;11.934;2023-02-16T01:38:22;101409.72;;;3.43;96.72
18533;BME280;9396;51.510;11.934;2023-02-16T01:40:56;101410.66;;;3.42;96.61
18533;BME280;9396;51.510;11.934;2023-02-16T01:43:29;101402.44;;;3.48;96.55
18533;BME280;9396;51.510;11.934;2023-02-16T01:46:03;101408.72;;;3.61;95.97
18533;BME280;9396;51.510;11.934;2023-02-16T01:48:33;101408.72;;;3.61;95.66
18533;BME280;9396;51.510;11.934;2023-02-16T01:51:04;101407.88;;;3.61;95.23
18533;BME280;9396;51.510;11.934;2023-02-16T01:53:34;101341.88;;;3.18;95.52
18533;BME280;9396;51.510;11.934;2023-02-16T01:56:12;101404.38;;;3.60;95.39
18533;BME280;9396;51.510;11.934;2023-02-16T01:58:43;101397.16;;;3.64;95.26
18533;BME280;9396;51.510;11.934;2023-02-16T02:01:36;101387.81;;;3.58;94.76
18533;BME280;9396;51.510;11.934;2023-02-16T02:04:22;101402.44;;;3.48;94.69
18533;BME280;9396;51.510;11.934;2023-02-16T02:07:15;101384.72;;;3.52;94.58
18533;BME280;9396;51.510;11.934;2023-02-16T02:09:49;101382.41;;;3.46;95.17
18533;BME280;9396;51.510;11.934;2023-02-16T02:12:24;101382.25;;;3.49;95.47
18533;BME280;9396;51.510;11.934;2023-02-16T02:14:53;101377.75;;;3.51;95.64
18533;BME280;9396;51.510;11.934;2023-02-16T02:17:20;101377.66;;;3.52;95.46
18533;BME280;9396;51.510;11.934;2023-02-16T02:19:56;101379.53;;;3.50;95.36
18533;BME280;9396;51.510;11.934;2023-02-16T02:22:56;101381.06;;;3.54;95.30
18533;BME280;9396;51.510;11.934;2023-02-16T02:28:52;101383.75;;;3.37;95.26
18533;BME280;9396;51.510;11.934;2023-02-16T02:31:34;101380.94;;;3.40;95.41
18533;BME280;9396;51.510;11.934;2023-02-16T02:34:14;101387.75;;;3.44;95.50
18533;BME280;9396;51.510;11.934;2023-02-16T02:36:47;101390.88;;;3.35;96.11
18533;BME280;9396;51.510;11.934;2023-02-16T02:39:25;101390.88;;;3.35;96.33
18533;BME280;9396;51.510;11.934;2023-02-16T02:42:02;101389.28;;;3.33;96.13
18533;BME280;9396;51.510;11.934;2023-02-16T02:44:32;101388.16;;;3.37;96.60
18533;BME280;9396;51.510;11.934;2023-02-16T02:47:00;101381.31;;;3.34;96.07
18533;BME280;9396;51.510;11.934;2023-02-16T02:49:27;101374.09;;;3.38;95.85
18533;BME280;9396;51.510;11.934;2023-02-16T02:51:54;101373.41;;;3.34;96.15
18533;BME280;9396;51.510;11.934;2023-02-16T02:54:23;101375.19;;;3.34;95.98
18533;BME280;9396;51.510;11.934;2023-02-16T02:57:10;101379.59;;;3.33;95.71
18533;BME280;9396;51.510;11.934;2023-02-16T03:00:00;101381.72;;;3.11;95.96
18533;BME280;9396;51.510;11.934;2023-02-16T03:02:48;101382.63;;;3.10;96.45
18533;BME280;9396;51.510;11.934;2023-02-16T03:05:18;101386.56;;;2.86;96.32
18533;BME280;9396;51.510;11.934;2023-02-16T03:07:48;101382.50;;;2.96;96.73
18533;BME280;9396;51.510;11.934;2023-02-16T03:10:19;101380.81;;;2.79;97.40
18533;BME280;9396;51.510;11.934;2023-02-16T03:13:10;101383.53;;;2.93;98.34
18533;BME280;9396;51.510;11.934;2023-02-16T03:15:39;101386.44;;;3.04;98.23
18533;BME280;9396;51.510;11.934;2023-02-16T03:18:09;101377.44;;;3.08;97.25
18533;BME280;9396;51.510;11.934;2023-02-16T03:20:55;101375.81;;;2.90;97.64
18533;BME280;9396;51.510;11.934;2023-02-16T03:23:41;101374.41;;;2.68;99.43
18533;BME280;9396;51.510;11.934;2023-02-16T03:26:27;101372.38;;;2.73;99.74
18533;BME280;9396;51.510;11.934;2023-02-16T03:29:13;101271.16;;;2.35;99.49
18533;BME280;9396;51.510;11.934;2023-02-16T03:31:47;101374.59;;;3.13;98.62
18533;BME280;9396;51.510;11.934;2023-02-16T03:34:16;101373.06;;;3.24;97.76
18533;BME280;9396;51.510;11.934;2023-02-16T03:36:45;101370.69;;;3.20;97.71
18533;BME280;9396;51.510;11.934;2023-02-16T03:39:12;101370.09;;;3.15;97.50
18533;BME280;9396;51.510;11.934;2023-02-16T03:41:42;101378.59;;;3.20;97.91
18533;BME280;9396;51.510;11.934;2023-02-16T03:44:09;101382.00;;;3.22;97.54
18533;BME280;9396;51.510;11.934;2023-02-16T03:46:36;101373.53;;;3.00;98.13
18533;BME280;9396;51.510;11.934;2023-02-16T03:49:04;101384.38;;;2.94;97.78
18533;BME280;9396;51.510;11.934;2023-02-16T03:51:30;101373.72;;;2.97;98.04
18533;BME280;9396;51.510;11.934;2023-02-16T03:53:57;101377.81;;;3.02;97.85
18533;BME280;9396;51.510;11.934;2023-02-16T03:56:23;101382.72;;;3.08;97.67
18533;BME280;9396;51.510;11.934;2023-02-16T03:58:50;101381.75;;;2.94;97.62
18533;BME280;9396;51.510;11.934;2023-02-16T04:01:17;101389.31;;;3.00;97.96
18533;BME280;9396;51.510;11.934;2023-02-16T04:03:43;101393.09;;;2.94;97.62
18533;BME280;9396;51.510;11.934;2023-02-16T04:06:11;101391.94;;;3.00;98.15
18533;BME280;9396;51.510;11.934;2023-02-16T04:08:38;101390.28;;;2.82;97.30
18533;BME280;9396;51.510;11.934;2023-02-16T04:11:05;101385.78;;;2.84;97.89
18533;BME280;9396;51.510;11.934;2023-02-16T04:13:52;101288.84;;;2.31;97.41
18533;BME280;9396;51.510;11.934;2023-02-16T04:16:18;101380.22;;;2.90;98.16
18533;BME280;9396;51.510;11.934;2023-02-16T04:18:45;101380.16;;;2.91;97.57
18533;BME280;9396;51.510;11.934;2023-02-16T04:21:13;101386.56;;;2.86;98.29
18533;BME280;9396;51.510;11.934;2023-02-16T04:23:39;101392.50;;;2.89;97.69
18533;BME280;9396;51.510;11.934;2023-02-16T04:26:06;101406.28;;;2.60;98.85
18533;BME280;9396;51.510;11.934;2023-02-16T04:28:33;101411.09;;;2.35;99.92
18533;BME280;9396;51.510;11.934;2023-02-16T04:30:59;101402.00;;;2.59;100.00
18533;BME280;9396;51.510;11.934;2023-02-16T04:33:26;101403.13;;;2.71;100.00
18533;BME280;9396;51.510;11.934;2023-02-16T04:35:52;101403.38;;;2.66;100.00
18533;BME280;9396;51.510;11.934;2023-02-16T04:38:20;101392.31;;;2.77;99.77
18533;BME280;9396;51.510;11.934;2023-02-16T04:40:47;101397.19;;;2.67;100.00
18533;BME280;9396;51.510;11.934;2023-02-16T04:43:14;101393.84;;;2.81;100.00
18533;BME280;9396;51.510;11.934;2023-02-16T04:45:40;101392.47;;;2.74;99.95
18533;BME280;9396;51.510;11.934;2023-02-16T04:48:07;101392.31;;;2.77;100.00
18533;BME280;9396;51.510;11.934;2023-02-16T04:50:33;101378.69;;;2.86;99.47
18533;BME280;9396;51.510;11.934;2023-02-16T04:53:00;101386.25;;;2.92;99.29
18533;BME280;9396;51.510;11.934;2023-02-16T04:55:28;101385.31;;;2.93;98.90
18533;BME280;9396;51.510;11.934;2023-02-16T04:57:55;101380.53;;;2.84;98.70
18533;BME280;9396;51.510;11.934;2023-02-16T05:00:22;101378.44;;;2.90;99.11
18533;BME280;9396;51.510;11.934;2023-02-16T05:02:48;101374.41;;;3.00;98.92
18533;BME280;9396;51.510;11.934;2023-02-16T05:05:15;101371.50;;;3.05;98.64
18533;BME280;9396;51.510;11.934;2023-02-16T05:07:41;101364.16;;;3.11;98.65
18533;BME280;9396;51.510;11.934;2023-02-16T05:10:09;101368.47;;;3.12;97.80
18533;BME280;9396;51.510;11.934;2023-02-16T05:12:37;101365.06;;;2.95;97.57
18533;BME280;9396;51.510;11.934;2023-02-16T05:15:32;101374.53;;;2.97;97.86
18533;BME280;9396;51.510;11.934;2023-02-16T05:17:59;101373.38;;;3.03;97.77
18533;BME280;9396;51.510;11.934;2023-02-16T05:20:26;101376.84;;;3.03;97.85
18533;BME280;9396;51.510;11.934;2023-02-16T05:23:06;101374.91;;;2.91;97.69
18533;BME280;9396;51.510;11.934;2023-02-16T05:25:33;101377.72;;;2.71;97.86
18533;BME280;9396;51.510;11.934;2023-02-16T05:28:01;101368.94;;;2.55;98.82
18533;BME280;9396;51.510;11.934;2023-02-16T05:30:27;101375.00;;;2.73;99.50
18533;BME280;9396;51.510;11.934;2023-02-16T05:32:54;101372.94;;;2.62;98.75
18533;BME280;9396;51.510;11.934;2023-02-16T05:35:21;101377.78;;;2.70;99.25
18533;BME280;9396;51.510;11.934;2023-02-16T05:37:47;101375.00;;;2.73;98.40
18533;BME280;9396;51.510;11.934;2023-02-16T05:40:14;101369.91;;;2.70;98.06
18533;BME280;9396;51.510;11.934;2023-02-16T05:42:41;101366.81;;;2.62;98.26
18533;BME280;9396;51.510;11.934;2023-02-16T05:45:09;101369.16;;;2.68;97.88
18533;BME280;9396;51.510;11.934;2023-02-16T05:47:35;101375.69;;;2.44;98.92
18533;BME280;9396;51.510;11.934;2023-02-16T05:50:02;101386.53;;;2.53;98.42
18533;BME280;9396;51.510;11.934;2023-02-16T05:52:29;101386.00;;;2.47;98.50
18533;BME280;9396;51.510;11.934;2023-02-16T05:54:55;101396.22;;;2.53;98.92
18533;BME280;9396;51.510;11.934;2023-02-16T05:57:22;101390.78;;;2.39;98.95
18533;BME280;9396;51.510;11.934;2023-02-16T05:59:49;101394.19;;;2.41;98.97
18533;BME280;9396;51.510;11.934;2023-02-16T06:02:17;101388.25;;;2.37;98.80
18533;BME280;9396;51.510;11.934;2023-02-16T06:04:43;101343.56;;;2.04;98.38
18533;BME280;9396;51.510;11.934;2023-02-16T06:07:10;101405.53;;;2.41;98.45
18533;BME280;9396;51.510;11.934;2023-02-16T06:09:37;101401.06;;;2.43;98.50
18533;BME280;9396;51.510;11.934;2023-02-16T06:12:04;101392.34;;;2.43;98.66
18533;BME280;9396;51.510;11.934;2023-02-16T06:14:31;101388.34;;;2.53;98.98
18533;BME280;9396;51.510;11.934;2023-02-16T06:16:57;101380.66;;;2.65;99.44
18533;BME280;9396;51.510;11.934;2023-02-16T06:19:27;101381.03;;;2.75;99.36
18533;BME280;9396;51.510;11.934;2023-02-16T06:21:53;101384.34;;;2.78;99.08
18533;BME280;9396;51.510;11.934;2023-02-16T06:24:20;101381.09;;;2.73;98.92
18533;BME280;9396;51.510;11.934;2023-02-16T06:26:46;101379.59;;;2.85;99.02
18533;BME280;9396;51.510;11.934;2023-02-16T06:29:13;101376.38;;;2.80;99.95
18533;BME280;9396;51.510;11.934;2023-02-16T06:31:40;101387.16;;;2.91;99.71
18533;BME280;9396;51.510;11.934;2023-02-16T06:34:06;101377.25;;;2.96;99.39
18533;BME280;9396;51.510;11.934;2023-02-16T06:36:34;101382.03;;;3.05;98.96
18533;BME280;9396;51.510;11.934;2023-02-16T06:39:01;101377.63;;;3.05;98.55
18533;BME280;9396;51.510;11.934;2023-02-16T06:41:27;101369.28;;;2.97;98.40
18533;BME280;9396;51.510;11.934;2023-02-16T06:44:01;101367.03;;;3.07;98.18
18533;BME280;9396;51.510;11.934;2023-02-16T06:46:28;101386.09;;;2.95;98.49
18533;BME280;9396;51.510;11.934;2023-02-16T06:48:55;101387.69;;;2.48;99.66
18533;BME280;9396;51.510;11.934;2023-02-16T06:51:22;101392.34;;;2.43;100.00
18533;BME280;9396;51.510;11.934;2023-02-16T06:53:50;101395.44;;;2.51;100.00
18533;BME280;9396;51.510;11.934;2023-02-16T06:56:16;101384.81;;;2.69;100.00
18533;BME280;9396;51.510;11.934;2023-02-16T06:58:43;101387.06;;;2.77;100.00
18533;BME280;9396;51.510;11.934;2023-02-16T07:01:10;101394.19;;;2.90;100.00
18533;BME280;9396;51.510;11.934;2023-02-16T07:03:37;101385.56;;;2.88;100.00
18533;BME280;9396;51.510;11.934;2023-02-16T07:06:04;101383.88;;;3.03;99.05
18533;BME280;9396;51.510;11.934;2023-02-16T07:08:31;101382.56;;;3.11;98.99
18533;BME280;9396;51.510;11.934;2023-02-16T07:10:59;101381.22;;;3.20;98.35
18533;BME280;9396;51.510;11.934;2023-02-16T07:13:25;101384.44;;;3.25;98.50
18533;BME280;9396;51.510;11.934;2023-02-16T07:15:52;101386.13;;;3.26;97.95
18533;BME280;9396;51.510;11.934;2023-02-16T07:18:18;101390.88;;;3.19;97.75
18533;BME280;9396;51.510;11.934;2023-02-16T07:20:46;101390.19;;;3.16;98.43
18533;BME280;9396;51.510;11.934;2023-02-16T07:23:13;101394.44;;;3.18;98.17
18533;BME280;9396;51.510;11.934;2023-02-16T07:25:39;101391.97;;;3.15;97.99
18533;BME280;9396;51.510;11.934;2023-02-16T07:28:07;101383.41;;;3.27;97.90
18533;BME280;9396;51.510;11.934;2023-02-16T07:30:34;101384.06;;;3.00;98.11
18533;BME280;9396;51.510;11.934;2023-02-16T07:33:01;101374.41;;;3.00;99.15
18533;BME280;9396;51.510;11.934;2023-02-16T07:35:27;101362.88;;;3.03;99.70
18533;BME280;9396;51.510;11.934;2023-02-16T07:37:54;101373.13;;;2.92;99.38
18533;BME280;9396;51.510;11.934;2023-02-16T07:40:20;101377.59;;;2.90;100.00
18533;BME280;9396;51.510;11.934;2023-02-16T07:42:47;101370.59;;;3.06;100.00
18533;BME280;9396;51.510;11.934;2023-02-16T07:45:15;101364.09;;;3.28;99.98
18533;BME280;9396;51.510;11.934;2023-02-16T07:47:42;101366.94;;;3.24;99.75
18533;BME280;9396;51.510;11.934;2023-02-16T07:50:09;101377.06;;;3.32;99.96
18533;BME280;9396;51.510;11.934;2023-02-16T07:52:36;101372.88;;;3.27;99.64
18533;BME280;9396;51.510;11.934;2023-02-16T07:55:04;101374.09;;;3.38;99.25
18533;BME280;9396;51.510;11.934;2023-02-16T07:57:31;101381.31;;;3.34;99.90
18533;BME280;9396;51.510;11.934;2023-02-16T07:59:57;101365.44;;;3.20;99.57
18533;BME280;9396;51.510;11.934;2023-02-16T08:02:25;101376.13;;;3.33;100.00
18533;BME280;9396;51.510;11.934;2023-02-16T08:04:52;101378.25;;;3.42;99.63
18533;BME280;9396;51.510;11.934;2023-02-16T08:07:19;101375.03;;;3.52;98.84
18533;BME280;9396;51.510;11.934;2023-02-16T08:09:46;101388.16;;;3.37;99.22
18533;BME280;9396;51.510;11.934;2023-02-16T08:12:14;101385.97;;;3.29;100.00
18533;BME280;9396;51.510;11.934;2023-02-16T08:14:41;101389.88;;;3.22;100.00
18533;BME280;9396;51.510;11.934;2023-02-16T08:17:09;101387.84;;;3.43;100.00
18533;BME280;9396;51.510;11.934;2023-02-16T08:19:37;101385.88;;;3.46;100.00
18533;BME280;9396;51.510;11.934;2023-02-16T08:22:05;101390.03;;;3.66;100.00
18533;BME280;9396;51.510;11.934;2023-02-16T08:24:32;101379.88;;;3.75;99.34
18533;BME280;9396;51.510;11.934;2023-02-16T08:27:01;101372.03;;;3.89;99.03
18533;BME280;9396;51.510;11.934;2023-02-16T08:29:28;101383.19;;;4.08;98.21
18533;BME280;9396;51.510;11.934;2023-02-16T08:31:54;101373.75;;;4.20;97.67
18533;BME280;9396;51.510;11.934;2023-02-16T08:34:22;101366.41;;;4.25;97.62
18533;BME280;9396;51.510;11.934;2023-02-16T08:36:53;101369.72;;;4.28;96.83
18533;BME280;9396;51.510;11.934;2023-02-16T08:39:22;101378.00;;;4.36;96.73
18533;BME280;9396;51.510;11.934;2023-02-16T08:41:50;101215.97;;;3.44;95.87
18533;BME280;9396;51.510;11.934;2023-02-16T08:44:19;101371.53;;;4.56;96.08
18533;BME280;9396;51.510;11.934;2023-02-16T08:46:47;101366.94;;;4.60;96.25
18533;BME280;9396;51.510;11.934;2023-02-16T08:49:15;101364.50;;;4.71;95.40
18533;BME280;9396;51.510;11.934;2023-02-16T08:51:44;101364.72;;;4.68;96.25
18533;BME280;9396;51.510;11.934;2023-02-16T08:54:15;101360.25;;;4.68;95.11
18533;BME280;9396;51.510;11.934;2023-02-16T08:56:43;101366.13;;;4.73;95.71
18533;BME280;9396;51.510;11.934;2023-02-16T08:59:11;101363.09;;;4.65;95.83
18533;BME280;9396;51.510;11.934;2023-02-16T09:01:38;101367.50;;;4.65;96.18
18533;BME280;9396;51.510;11.934;2023-02-16T09:04:06;101367.44;;;4.66;95.83
18533;BME280;9396;51.510;11.934;2023-02-16T09:06:35;101364.53;;;4.85;95.82
18533;BME280;9396;51.510;11.934;2023-02-16T09:09:03;101364.81;;;5.08;95.86
18533;BME280;9396;51.510;11.934;2023-02-16T09:11:32;101356.59;;;4.99;95.04
18533;BME280;9396;51.510;11.934;2023-02-16T09:13:58;101357.56;;;4.98;95.49
18533;BME280;9396;51.510;11.934;2023-02-16T09:16:25;101357.66;;;5.10;94.71
18533;BME280;9396;51.510;11.934;2023-02-16T09:18:54;101356.78;;;5.10;94.42
18533;BME280;9396;51.510;11.934;2023-02-16T09:21:23;101357.81;;;5.07;95.08
18533;BME280;9396;51.510;11.934;2023-02-16T09:23:53;101354.16;;;5.10;95.41
18533;BME280;9396;51.510;11.934;2023-02-16T09:26:23;101355.25;;;5.20;95.22
18533;BME280;9396;51.510;11.934;2023-02-16T09:28:52;101360.16;;;5.26;95.24
18533;BME280;9396;51.510;11.934;2023-02-16T09:31:21;101362.97;;;5.37;94.23
18533;BME280;9396;51.510;11.934;2023-02-16T09:33:51;101360.50;;;5.48;94.37
18533;BME280;9396;51.510;11.934;2023-02-16T09:36:18;101364.78;;;5.63;93.86
18533;BME280;9396;51.510;11.934;2023-02-16T09:38:45;101365.69;;;5.76;93.63
18533;BME280;9396;51.510;11.934;2023-02-16T09:41:22;101355.78;;;5.80;92.82
18533;BME280;9396;51.510;11.934;2023-02-16T09:43:57;101358.91;;;5.86;93.16
18533;BME280;9396;51.510;11.934;2023-02-16T09:46:25;101349.97;;;6.01;93.34
18533;BME280;9396;51.510;11.934;2023-02-16T09:48:54;101353.69;;;6.11;92.44
18533;BME280;9396;51.510;11.934;2023-02-16T09:51:24;101360.22;;;6.06;92.75
18533;BME280;9396;51.510;11.934;2023-02-16T09:53:55;101355.94;;;6.17;92.01
18533;BME280;9396;51.510;11.934;2023-02-16T09:56:27;101351.94;;;6.24;92.67
18533;BME280;9396;51.510;11.934;2023-02-16T09:59:02;101352.75;;;6.25;93.04
18533;BME280;9396;51.510;11.934;2023-02-16T10:01:35;101349.28;;;6.24;92.15
18533;BME280;9396;51.510;11.934;2023-02-16T10:04:21;101358.50;;;6.31;92.46
18533;BME280;9396;51.510;11.934;2023-02-16T10:06:55;101350.59;;;6.57;92.20
18533;BME280;9396;51.510;11.934;2023-02-16T10:09:27;101348.47;;;6.62;91.80
18533;BME280;9396;51.510;11.934;2023-02-16T10:12:01;101353.44;;;6.79;91.79
18533;BME280;9396;51.510;11.934;2023-02-16T10:14:34;101353.97;;;6.84;90.26
18533;BME280;9396;51.510;11.934;2023-02-16T10:17:12;101350.91;;;6.90;90.61
18533;BME280;9396;51.510;11.934;2023-02-16T10:19:45;101350.50;;;6.83;90.74
18533;BME280;9396;51.510;11.934;2023-02-16T10:22:18;101356.19;;;6.90;89.95
18533;BME280;9396;51.510;11.934;2023-02-16T10:24:54;101349.13;;;6.90;90.92
18533;BME280;9396;51.510;11.934;2023-02-16T10:27:26;101352.06;;;6.98;90.24
18533;BME280;9396;51.510;11.934;2023-02-16T10:29:56;101343.81;;;7.03;90.87
18533;BME280;9396;51.510;11.934;2023-02-16T10:32:26;101342.81;;;7.16;90.31
18533;BME280;9396;51.510;11.934;2023-02-16T10:35:02;101346.72;;;7.23;90.51
18533;BME280;9396;51.510;11.934;2023-02-16T10:37:51;101343.81;;;7.39;92.35
18533;BME280;9396;51.510;11.934;2023-02-16T10:40:26;101351.44;;;7.43;91.25
18533;BME280;9396;51.510;11.934;2023-02-16T10:43:00;101344.63;;;7.52;91.66
18533;BME280;9396;51.510;11.934;2023-02-16T10:45:36;101349.25;;;7.61;93.02
18533;BME280;9396;51.510;11.934;2023-02-16T10:48:07;101343.34;;;7.57;90.49
18533;BME280;9396;51.510;11.934;2023-02-16T10:50:37;101334.88;;;7.76;91.65
18533;BME280;9396;51.510;11.934;2023-02-16T10:53:12;101345.88;;;7.83;89.38
18533;BME280;9396;51.510;11.934;2023-02-16T10:55:39;101331.63;;;7.73;89.49
18533;BME280;9396;51.510;11.934;2023-02-16T10:58:15;101331.06;;;7.80;90.24
18533;BME280;9396;51.510;11.934;2023-02-16T11:00:50;101331.41;;;7.76;89.07
18533;BME280;9396;51.510;11.934;2023-02-16T11:03:23;101324.34;;;7.87;88.85
18533;BME280;9396;51.510;11.934;2023-02-16T11:05:50;101319.66;;;7.91;88.89
18533;BME280;9396;51.510;11.934;2023-02-16T11:08:18;101304.06;;;7.99;87.56
18533;BME280;9396;51.510;11.934;2023-02-16T11:10:46;101311.44;;;8.06;87.34
18533;BME280;9396;51.510;11.934;2023-02-16T11:13:24;101310.81;;;8.03;88.25
18533;BME280;9396;51.510;11.934;2023-02-16T11:15:55;101307.44;;;8.12;87.74
18533;BME280;9396;51.510;11.934;2023-02-16T11:18:30;101303.25;;;8.09;87.58
18533;BME280;9396;51.510;11.934;2023-02-16T11:21:00;101300.97;;;8.16;86.71
18533;BME280;9396;51.510;11.934;2023-02-16T11:23:29;101306.38;;;8.14;86.13
18533;BME280;9396;51.510;11.934;2023-02-16T11:25:59;101299.63;;;8.10;87.10
18533;BME280;9396;51.510;11.934;2023-02-16T11:28:29;101300.97;;;8.16;87.09
18533;BME280;9396;51.510;11.934;2023-02-16T11:31:02;101293.38;;;8.11;88.41
18533;BME280;9396;51.510;11.934;2023-02-16T11:33:31;101300.44;;;8.00;88.51
18533;BME280;9396;51.510;11.934;2023-02-16T11:35:59;101294.56;;;8.07;88.19
18533;BME280;9396;51.510;11.934;2023-02-16T11:38:28;101298.19;;;8.17;90.78
18533;BME280;9396;51.510;11.934;2023-02-16T11:40:57;101236.94;;;7.87;88.09
18533;BME280;9396;51.510;11.934;2023-02-16T11:43:26;101290.84;;;8.21;89.64
18533;BME280;9396;51.510;11.934;2023-02-16T11:46:01;101278.78;;;8.29;88.66
18533;BME280;9396;51.510;11.934;2023-02-16T11:48:31;101278.53;;;8.32;88.07
18533;BME280;9396;51.510;11.934;2023-02-16T11:50:59;101280.59;;;8.40;87.52
18533;BME280;9396;51.510;11.934;2023-02-16T11:53:29;101273.97;;;8.45;87.18
18533;BME280;9396;51.510;11.934;2023-02-16T11:56:21;101276.47;;;8.58;86.71
18533;BME280;9396;51.510;11.934;2023-02-16T11:59:07;101271.91;;;8.60;87.15
18533;BME280;9396;51.510;11.934;2023-02-16T12:01:55;101278.66;;;8.64;85.71
18533;BME280;9396;51.510;11.934;2023-02-16T12:04:40;101278.53;;;8.65;85.46
18533;BME280;9396;51.510;11.934;2023-02-16T12:07:19;101277.81;;;8.63;84.25
18533;BME280;9396;51.510;11.934;2023-02-16T12:09:52;101263.34;;;8.68;84.02
18533;BME280;9396;51.510;11.934;2023-02-16T12:12:30;101269.53;;;8.68;85.16
18533;BME280;9396;51.510;11.934;2023-02-16T12:15:03;101257.81;;;8.71;85.04
18533;BME280;9396;51.510;11.934;2023-02-16T12:17:52;101260.00;;;8.88;86.39
18533;BME280;9396;51.510;11.934;2023-02-16T12:20:32;101257.81;;;8.93;84.57
18533;BME280;9396;51.510;11.934;2023-02-16T12:23:11;101250.78;;;9.03;85.45
18533;BME280;9396;51.510;11.934;2023-02-16T12:25:47;101250.19;;;9.10;85.42
18533;BME280;9396;51.510;11.934;2023-02-16T12:28:22;101249.31;;;9.10;85.07
18533;BME280;9396;51.510;11.934;2023-02-16T12:30:59;101253.09;;;9.07;84.41
18533;BME280;9396;51.510;11.934;2023-02-16T12:33:39;101248.63;;;9.08;84.16
18533;BME280;9396;51.510;11.934;2023-02-16T12:36:28;101253.81;;;9.09;83.62
18533;BME280;9396;51.510;11.934;2023-02-16T12:39:02;101250.44;;;9.07;83.51
18533;BME280;9396;51.510;11.934;2023-02-16T12:41:43;101246.94;;;9.07;84.15
18533;BME280;9396;51.510;11.934;2023-02-16T12:44:15;101259.25;;;9.08;84.37
18533;BME280;9396;51.510;11.934;2023-02-16T12:46:45;101252.47;;;9.15;84.14
18533;BME280;9396;51.510;11.934;2023-02-16T12:49:18;101250.50;;;9.17;84.98
18533;BME280;9396;51.510;11.934;2023-02-16T12:51:52;101243.50;;;9.27;87.84
18533;BME280;9396;51.510;11.934;2023-02-16T12:54:23;101238.94;;;9.18;85.49
18533;BME280;9396;51.510;11.934;2023-02-16T12:56:58;101236.56;;;9.15;84.22
18533;BME280;9396;51.510;11.934;2023-02-16T12:59:33;101240.91;;;9.05;83.25
18533;BME280;9396;51.510;11.934;2023-02-16T13:02:03;101247.19;;;9.04;85.03
18533;BME280;9396;51.510;11.934;2023-02-16T13:04:39;101245.34;;;9.04;84.72
18533;BME280;9396;51.510;11.934;2023-02-16T13:07:14;101241.16;;;8.91;85.42
18533;BME280;9396;51.510;11.934;2023-02-16T13:09:50;101235.59;;;8.94;85.07
18533;BME280;9396;51.510;11.934;2023-02-16T13:12:25;101221.84;;;9.00;85.52
18533;BME280;9396;51.510;11.934;2023-02-16T13:14:59;101212.69;;;9.04;85.38
18533;BME280;9396;51.510;11.934;2023-02-16T13:17:30;101226.16;;;9.12;87.65
18533;BME280;9396;51.510;11.934;2023-02-16T13:19:59;101218.31;;;9.10;83.75
18533;BME280;9396;51.510;11.934;2023-02-16T13:22:48;101223.97;;;9.17;85.42